createdAt,value
2019-01-25T00:00:29.803Z,-1.10
2019-01-25T00:02:57.826Z,-1.10
2019-01-25T00:05:23.998Z,-1.10
2019-01-25T00:07:50.143Z,-1.10
2019-01-25T00:10:16.290Z,-1.10
2019-01-25T00:12:42.430Z,-1.00
2019-01-25T00:15:09.990Z,-1.00
2019-01-25T00:17:37.133Z,-1.10
2019-01-25T00:20:08.712Z,-1.10
2019-01-25T00:22:34.940Z,-1.10
2019-01-25T00:25:01.426Z,-1.20
2019-01-25T00:27:27.817Z,-1.10
2019-01-25T00:29:53.967Z,-1.00
2019-01-25T00:32:20.110Z,-1.10
2019-01-25T00:34:46.254Z,-1.20
2019-01-25T00:37:12.423Z,-1.20
2019-01-25T00:39:38.560Z,-1.10
2019-01-25T00:42:04.705Z,-1.20
2019-01-25T00:44:31.098Z,-1.20
2019-01-25T00:46:57.535Z,-1.10
2019-01-25T00:49:23.682Z,-1.20
2019-01-25T00:51:49.822Z,-1.20
2019-01-25T00:54:16.226Z,-1.10
2019-01-25T00:56:42.374Z,-1.10
2019-01-25T00:59:08.519Z,-1.10
2019-01-25T01:01:34.678Z,-1.00
2019-01-25T01:04:00.855Z,-1.00
2019-01-25T01:06:27.122Z,-1.00
2019-01-25T01:08:53.594Z,-1.00
2019-01-25T01:11:19.733Z,-1.00
2019-01-25T01:13:45.879Z,-1.00
2019-01-25T01:16:12.027Z,-1.10
2019-01-25T01:18:38.171Z,-1.10
2019-01-25T01:21:04.323Z,-1.10
2019-01-25T01:23:30.495Z,-1.10
2019-01-25T01:25:56.886Z,-1.00
2019-01-25T01:28:23.047Z,-1.00
2019-01-25T01:30:49.454Z,-1.00
2019-01-25T01:33:15.871Z,-1.00
2019-01-25T01:35:42.024Z,-1.00
2019-01-25T01:38:08.178Z,-1.00
2019-01-25T01:40:34.358Z,-1.00
2019-01-25T01:43:00.493Z,-0.90
2019-01-25T01:45:26.634Z,-0.80
2019-01-25T01:47:52.770Z,-0.80
2019-01-25T01:50:19.181Z,-0.80
2019-01-25T01:52:46.412Z,-0.80
2019-01-25T01:55:12.614Z,-0.90
2019-01-25T01:57:38.768Z,-0.80
2019-01-25T02:00:08.734Z,-0.90
2019-01-25T02:02:34.891Z,-0.90
2019-01-25T02:05:01.750Z,-0.90
2019-01-25T02:07:27.948Z,-0.90
2019-01-25T02:09:54.191Z,-1.00
2019-01-25T02:12:20.668Z,-1.00
2019-01-25T02:14:46.804Z,-1.00
2019-01-25T02:17:12.958Z,-0.90
2019-01-25T02:19:40.115Z,-0.80
2019-01-25T02:22:07.816Z,-0.90
2019-01-25T02:24:34.227Z,-1.00
2019-01-25T02:27:00.386Z,-0.90
2019-01-25T02:29:26.527Z,-0.90
2019-01-25T02:31:52.681Z,-0.90
2019-01-25T02:34:18.834Z,-0.90
2019-01-25T02:36:45.003Z,-0.80
2019-01-25T02:39:11.161Z,-0.90
2019-01-25T02:41:37.315Z,-1.00
2019-01-25T02:44:03.559Z,-1.00
2019-01-25T02:46:29.695Z,-0.90
2019-01-25T02:48:56.147Z,-0.80
2019-01-25T02:51:22.294Z,-0.80
2019-01-25T02:53:48.444Z,-0.80
2019-01-25T02:56:15.698Z,-0.90
2019-01-25T02:58:41.856Z,-0.90
2019-01-25T03:01:08.021Z,-0.80
2019-01-25T03:03:34.172Z,-0.80
2019-01-25T03:06:00.343Z,-0.80
2019-01-25T03:08:26.502Z,-0.80
2019-01-25T03:10:52.644Z,-0.80
2019-01-25T03:13:19.059Z,-0.70
2019-01-25T03:15:45.238Z,-0.70
2019-01-25T03:18:11.376Z,-0.70
2019-01-25T03:20:37.552Z,-0.80
2019-01-25T03:23:03.702Z,-0.90
2019-01-25T03:25:29.883Z,-0.80
2019-01-25T03:27:56.019Z,-0.80
2019-01-25T03:30:23.775Z,-0.80
2019-01-25T03:32:49.918Z,-0.80
2019-01-25T03:35:18.000Z,-0.80
2019-01-25T03:37:44.147Z,-0.90
2019-01-25T03:40:15.655Z,-0.80
2019-01-25T03:42:41.803Z,-0.80
2019-01-25T03:45:10.057Z,-0.80
2019-01-25T03:47:36.232Z,-0.90
2019-01-25T03:50:06.240Z,-0.80
2019-01-25T03:52:32.392Z,-0.80
2019-01-25T03:54:58.535Z,-0.80
2019-01-25T03:57:24.681Z,-0.80
2019-01-25T03:59:50.858Z,-0.90
2019-01-25T04:02:17.005Z,-0.80
2019-01-25T04:04:43.155Z,-0.90
2019-01-25T04:07:09.302Z,-0.90
2019-01-25T04:09:35.448Z,-0.90
2019-01-25T04:12:01.607Z,-0.80
2019-01-25T04:14:27.748Z,-0.90
2019-01-25T04:16:53.920Z,-0.90
2019-01-25T04:19:20.073Z,-0.90
2019-01-25T04:21:46.553Z,-0.80
2019-01-25T04:24:12.742Z,-0.80
2019-01-25T04:26:38.887Z,-0.80
2019-01-25T04:29:05.048Z,-0.80
2019-01-25T04:31:31.190Z,-0.80
2019-01-25T04:33:57.338Z,-0.80
2019-01-25T04:36:23.501Z,-0.80
2019-01-25T04:38:49.656Z,-0.90
2019-01-25T04:41:15.803Z,-0.90
2019-01-25T04:43:42.312Z,-0.90
2019-01-25T04:46:08.474Z,-0.90
2019-01-25T04:48:34.623Z,-0.90
2019-01-25T04:51:04.588Z,-0.90
2019-01-25T04:53:33.655Z,-0.90
2019-01-25T04:56:00.230Z,-0.90
2019-01-25T04:58:26.465Z,-0.90
2019-01-25T05:00:52.607Z,-0.90
2019-01-25T05:03:18.770Z,-0.80
2019-01-25T05:05:45.324Z,-0.80
2019-01-25T05:08:16.370Z,-0.80
2019-01-25T05:10:42.983Z,-0.70
2019-01-25T05:13:09.142Z,-0.70
2019-01-25T05:15:35.304Z,-0.70
2019-01-25T05:18:03.170Z,-0.70
2019-01-25T05:20:29.318Z,-0.70
2019-01-25T05:23:03.312Z,-0.70
2019-01-25T05:25:29.463Z,-0.70
2019-01-25T05:27:55.613Z,-0.70
2019-01-25T05:30:22.777Z,-0.70
2019-01-25T05:32:48.930Z,-0.70
2019-01-25T05:35:15.428Z,-0.70
2019-01-25T05:37:41.587Z,-0.70
2019-01-25T05:40:10.059Z,-0.70
2019-01-25T05:42:36.235Z,-0.80
2019-01-25T05:45:11.832Z,-0.70
2019-01-25T05:47:38.002Z,-0.80
2019-01-25T05:50:07.951Z,-0.70
2019-01-25T05:52:34.118Z,-0.80
2019-01-25T05:55:00.291Z,-0.80
2019-01-25T05:57:26.439Z,-0.80
2019-01-25T05:59:52.578Z,-0.70
2019-01-25T06:02:19.035Z,-0.70
2019-01-25T06:04:45.176Z,-0.80
2019-01-25T06:07:11.330Z,-0.70
2019-01-25T06:09:37.511Z,-0.80
2019-01-25T06:12:03.647Z,-0.80
2019-01-25T06:14:29.826Z,-0.80
2019-01-25T06:16:55.971Z,-0.80
2019-01-25T06:19:22.150Z,-0.80
2019-01-25T06:21:49.141Z,-0.70
2019-01-25T06:24:15.292Z,-0.70
2019-01-25T06:26:43.753Z,-0.80
2019-01-25T06:29:10.150Z,-0.70
2019-01-25T06:31:36.594Z,-0.80
2019-01-25T06:34:02.788Z,-0.80
2019-01-25T06:36:28.947Z,-0.70
2019-01-25T06:38:55.100Z,-0.70
2019-01-25T06:41:21.252Z,-0.70
2019-01-25T06:43:47.730Z,-0.70
2019-01-25T06:46:13.890Z,-0.80
2019-01-25T06:48:40.307Z,-0.70
2019-01-25T06:51:06.464Z,-0.70
2019-01-25T06:53:32.613Z,-0.70
2019-01-25T06:55:58.771Z,-0.70
2019-01-25T06:58:32.651Z,-0.70
2019-01-25T07:01:03.259Z,-0.70
2019-01-25T07:03:29.391Z,-0.70
2019-01-25T07:05:55.554Z,-0.80
2019-01-25T07:08:29.214Z,-0.80
2019-01-25T07:10:55.411Z,-0.80
2019-01-25T07:13:21.555Z,-0.70
2019-01-25T07:15:48.060Z,-0.60
2019-01-25T07:18:14.202Z,-0.60
2019-01-25T07:20:40.740Z,-0.70
2019-01-25T07:23:07.168Z,-0.70
2019-01-25T07:25:33.322Z,-0.70
2019-01-25T07:27:59.500Z,-0.70
2019-01-25T07:30:25.623Z,-0.60
2019-01-25T07:32:51.800Z,-0.60
2019-01-25T07:35:17.959Z,-0.60
2019-01-25T07:37:44.190Z,-0.50
2019-01-25T07:40:10.484Z,-0.50
2019-01-25T07:42:36.977Z,-0.50
2019-01-25T07:45:06.344Z,-0.40
2019-01-25T07:47:32.833Z,-0.50
2019-01-25T07:49:59.143Z,-0.60
2019-01-25T07:52:25.301Z,-0.50
2019-01-25T07:54:51.464Z,-0.50
2019-01-25T07:57:17.596Z,-0.50
2019-01-25T07:59:44.028Z,-0.20
2019-01-25T08:02:10.172Z,-0.20
2019-01-25T08:04:36.315Z,-0.30
2019-01-25T08:07:02.458Z,-0.30
2019-01-25T08:09:28.605Z,-0.30
2019-01-25T08:11:54.980Z,-0.20
2019-01-25T08:14:21.167Z,-0.20
2019-01-25T08:16:47.363Z,-0.10
2019-01-25T08:19:13.521Z,0.10
2019-01-25T08:21:39.683Z,0.20
2019-01-25T08:24:05.847Z,0.30
2019-01-25T08:26:32.216Z,0.30
2019-01-25T08:28:58.379Z,0.50
2019-01-25T08:31:24.537Z,0.60
2019-01-25T08:33:50.685Z,0.60
2019-01-25T08:36:16.868Z,0.50
2019-01-25T08:38:43.100Z,0.30
2019-01-25T08:41:09.267Z,0.40
2019-01-25T08:43:35.456Z,0.30
2019-01-25T08:46:01.717Z,0.30
2019-01-25T08:48:29.191Z,0.40
2019-01-25T08:50:55.551Z,0.50
2019-01-25T08:53:21.732Z,0.40
2019-01-25T08:55:47.993Z,0.20
2019-01-25T08:58:14.188Z,0.10
2019-01-25T09:00:40.391Z,0.20
2019-01-25T09:03:11.780Z,0.20
2019-01-25T09:05:38.295Z,0.30
2019-01-25T09:08:04.454Z,0.30
2019-01-25T09:10:30.618Z,0.40
2019-01-25T09:12:57.062Z,0.40
2019-01-25T09:15:26.612Z,0.40
2019-01-25T09:17:52.777Z,0.40
2019-01-25T09:20:20.247Z,0.40
2019-01-25T09:22:47.763Z,0.40
2019-01-25T09:25:13.922Z,0.40
2019-01-25T09:27:40.092Z,0.50
2019-01-25T09:30:14.793Z,0.50
2019-01-25T09:32:40.927Z,0.60
2019-01-25T09:35:07.384Z,0.60
2019-01-25T09:37:33.550Z,0.60
2019-01-25T09:39:59.919Z,0.60
2019-01-25T09:42:31.002Z,0.60
2019-01-25T09:44:54.149Z,0.60
2019-01-25T09:47:20.294Z,0.60
2019-01-25T09:49:46.467Z,0.60
2019-01-25T09:52:12.612Z,0.70
2019-01-25T09:54:42.008Z,0.70
2019-01-25T09:57:08.330Z,0.70
2019-01-25T09:59:34.879Z,0.60
2019-01-25T10:02:01.024Z,0.70
2019-01-25T10:04:27.434Z,0.80
2019-01-25T10:06:53.871Z,0.70
2019-01-25T10:09:20.040Z,0.70
2019-01-25T10:11:46.218Z,0.80
2019-01-25T10:14:12.615Z,0.90
2019-01-25T10:16:39.071Z,0.90
2019-01-25T10:19:06.347Z,0.90
2019-01-25T10:21:32.508Z,1.00
2019-01-25T10:23:58.663Z,1.00
2019-01-25T10:26:24.815Z,1.10
2019-01-25T10:28:50.954Z,1.20
2019-01-25T10:31:17.094Z,1.10
2019-01-25T10:33:43.239Z,1.20
2019-01-25T10:36:09.385Z,1.20
2019-01-25T10:38:35.543Z,1.30
2019-01-25T10:41:01.692Z,1.40
2019-01-25T10:43:27.870Z,1.40
2019-01-25T10:45:54.026Z,1.30
2019-01-25T10:48:20.199Z,1.40
2019-01-25T10:50:46.356Z,1.60
2019-01-25T10:53:12.507Z,1.60
2019-01-25T10:55:39.144Z,1.60
2019-01-25T10:58:05.664Z,1.50
2019-01-25T11:00:31.814Z,1.60
2019-01-25T11:02:58.651Z,1.70
2019-01-25T11:05:29.211Z,1.70
2019-01-25T11:07:55.827Z,1.60
2019-01-25T11:10:21.986Z,1.70
2019-01-25T11:12:48.179Z,1.60
2019-01-25T11:15:17.336Z,1.70
2019-01-25T11:17:43.501Z,1.70
2019-01-25T11:20:13.299Z,1.70
2019-01-25T11:22:39.543Z,1.70
2019-01-25T11:25:15.559Z,1.80
2019-01-25T11:27:41.723Z,1.70
2019-01-25T11:30:11.295Z,1.80
2019-01-25T11:32:37.434Z,1.70
2019-01-25T11:35:04.315Z,1.80
2019-01-25T11:37:30.470Z,1.70
2019-01-25T11:39:56.879Z,1.70
2019-01-25T11:42:23.014Z,1.80
2019-01-25T11:44:49.212Z,1.70
2019-01-25T11:47:15.391Z,1.90
2019-01-25T11:49:41.531Z,1.80
2019-01-25T11:52:07.707Z,1.90
2019-01-25T11:54:33.867Z,2.00
2019-01-25T11:57:00.229Z,1.90
2019-01-25T11:59:26.382Z,2.10
2019-01-25T12:01:52.533Z,2.10
2019-01-25T12:04:18.675Z,2.20
2019-01-25T12:06:44.816Z,2.20
2019-01-25T12:09:11.220Z,2.20
2019-01-25T12:11:37.616Z,2.20
2019-01-25T12:14:04.004Z,2.20
2019-01-25T12:16:30.142Z,2.30
2019-01-25T12:18:56.283Z,2.30
2019-01-25T12:21:22.456Z,2.30
2019-01-25T12:23:48.615Z,2.40
2019-01-25T12:26:15.115Z,2.40
2019-01-25T12:28:41.269Z,2.40
2019-01-25T12:31:07.670Z,2.50
2019-01-25T12:33:33.815Z,2.60
2019-01-25T12:36:00.320Z,2.50
2019-01-25T12:38:27.519Z,2.60
2019-01-25T12:40:53.673Z,2.60
2019-01-25T12:43:24.201Z,2.70
2019-01-25T12:45:50.191Z,2.70
2019-01-25T12:48:15.973Z,2.70
2019-01-25T12:50:49.019Z,2.70
2019-01-25T12:53:14.332Z,2.80
2019-01-25T12:55:40.574Z,2.70
2019-01-25T12:58:06.730Z,2.70
2019-01-25T13:00:32.934Z,2.80
2019-01-25T13:02:59.306Z,2.80
2019-01-25T13:05:25.467Z,2.80
2019-01-25T13:07:51.870Z,2.80
2019-01-25T13:10:20.528Z,2.70
2019-01-25T13:12:46.676Z,2.90
2019-01-25T13:15:12.836Z,2.90
2019-01-25T13:17:39.005Z,2.90
2019-01-25T13:20:11.696Z,3.00
2019-01-25T13:22:37.835Z,2.90
2019-01-25T13:25:04.048Z,3.00
2019-01-25T13:27:30.364Z,3.00
2019-01-25T13:29:56.657Z,3.00
2019-01-25T13:32:22.943Z,3.00
2019-01-25T13:34:49.252Z,2.90
2019-01-25T13:37:15.638Z,3.00
2019-01-25T13:39:42.154Z,2.90
2019-01-25T13:42:08.305Z,2.90
2019-01-25T13:44:34.520Z,2.90
2019-01-25T13:47:00.658Z,2.90
2019-01-25T13:49:27.202Z,3.00
2019-01-25T13:51:53.343Z,3.00
2019-01-25T13:54:19.544Z,3.00
2019-01-25T13:56:45.880Z,3.00
2019-01-25T13:59:12.416Z,3.10
2019-01-25T14:01:38.558Z,3.10
2019-01-25T14:04:04.873Z,3.10
2019-01-25T14:06:31.380Z,3.20
2019-01-25T14:08:57.807Z,3.20
2019-01-25T14:11:24.075Z,3.30
2019-01-25T14:13:50.247Z,3.20
2019-01-25T14:16:16.383Z,3.20
2019-01-25T14:18:45.041Z,3.20
2019-01-25T14:21:11.512Z,3.20
2019-01-25T14:23:37.960Z,3.20
2019-01-25T14:26:04.180Z,3.20
2019-01-25T14:28:30.324Z,3.20
2019-01-25T14:30:56.878Z,3.20
2019-01-25T14:33:23.423Z,3.10
2019-01-25T14:35:50.084Z,3.10
2019-01-25T14:38:16.566Z,3.10
2019-01-25T14:40:42.870Z,3.10
2019-01-25T14:43:09.010Z,3.00
2019-01-25T14:45:35.192Z,3.10
2019-01-25T14:48:01.451Z,3.10
2019-01-25T14:50:29.778Z,3.00
2019-01-25T14:52:55.919Z,3.00
2019-01-25T14:55:22.519Z,3.00
2019-01-25T14:57:48.830Z,3.00
2019-01-25T15:00:15.427Z,3.00
2019-01-25T15:02:41.860Z,3.00
2019-01-25T15:05:16.700Z,3.00
2019-01-25T15:07:43.031Z,3.00
2019-01-25T15:10:12.246Z,3.00
2019-01-25T15:12:38.900Z,3.00
2019-01-25T15:15:08.658Z,3.00
2019-01-25T15:17:35.515Z,3.10
2019-01-25T15:20:05.435Z,3.10
2019-01-25T15:22:32.156Z,3.10
2019-01-25T15:24:58.651Z,3.00
2019-01-25T15:27:25.226Z,3.00
2019-01-25T15:29:51.970Z,3.00
2019-01-25T15:32:18.742Z,2.90
2019-01-25T15:34:45.340Z,2.90
2019-01-25T15:37:12.011Z,2.80
2019-01-25T15:39:38.896Z,2.80
2019-01-25T15:42:05.337Z,2.70
2019-01-25T15:44:31.926Z,2.60
2019-01-25T15:46:58.334Z,2.60
2019-01-25T15:49:25.139Z,2.60
2019-01-25T15:51:51.611Z,2.60
2019-01-25T15:54:18.226Z,2.50
2019-01-25T15:56:44.771Z,2.60
2019-01-25T15:59:11.358Z,2.50
2019-01-25T16:01:38.211Z,2.50
2019-01-25T16:04:04.840Z,2.50
2019-01-25T16:06:31.294Z,2.50
2019-01-25T16:08:57.936Z,2.50
2019-01-25T16:11:24.767Z,2.40
2019-01-25T16:13:51.511Z,2.40
2019-01-25T16:16:18.196Z,2.40
2019-01-25T16:18:44.778Z,2.40
2019-01-25T16:21:12.012Z,2.50
2019-01-25T16:23:38.629Z,2.40
2019-01-25T16:26:05.221Z,2.40
2019-01-25T16:28:31.914Z,2.40
2019-01-25T16:30:58.539Z,2.40
2019-01-25T16:33:25.427Z,2.40
2019-01-25T16:35:51.924Z,2.40
2019-01-25T16:38:18.374Z,2.40
2019-01-25T16:40:45.015Z,2.40
2019-01-25T16:43:12.211Z,2.40
2019-01-25T16:45:40.255Z,2.40
2019-01-25T16:48:07.870Z,2.40
2019-01-25T16:50:36.072Z,2.40
2019-01-25T16:53:04.731Z,2.40
2019-01-25T16:55:31.597Z,2.40
2019-01-25T16:57:58.416Z,2.40
2019-01-25T17:00:28.862Z,2.40
2019-01-25T17:02:55.770Z,2.40
2019-01-25T17:05:22.256Z,2.40
2019-01-25T17:07:48.912Z,2.50
2019-01-25T17:10:15.456Z,2.50
2019-01-25T17:12:41.619Z,2.50
2019-01-25T17:15:09.275Z,2.50
2019-01-25T17:17:35.749Z,2.50
2019-01-25T17:20:03.620Z,2.60
2019-01-25T17:22:30.767Z,2.50
2019-01-25T17:24:56.948Z,2.50
2019-01-25T17:27:23.108Z,2.50
2019-01-25T17:29:49.268Z,2.50
2019-01-25T17:32:16.274Z,2.50
2019-01-25T17:34:43.205Z,2.60
2019-01-25T17:37:10.111Z,2.60
2019-01-25T17:39:37.024Z,2.60
2019-01-25T17:42:03.963Z,2.60
2019-01-25T17:44:31.829Z,2.60
2019-01-25T17:46:58.879Z,2.60
2019-01-25T17:49:26.831Z,2.60
2019-01-25T17:51:53.795Z,2.60
2019-01-25T17:54:20.766Z,2.60
2019-01-25T17:56:47.506Z,2.60
2019-01-25T17:59:15.405Z,2.60
2019-01-25T18:01:43.408Z,2.60
2019-01-25T18:04:10.379Z,2.60
2019-01-25T18:06:37.410Z,2.60
2019-01-25T18:09:05.364Z,2.60
2019-01-25T18:11:33.095Z,2.60
2019-01-25T18:13:59.914Z,2.60
2019-01-25T18:16:26.983Z,2.60
2019-01-25T18:18:53.774Z,2.60
2019-01-25T18:21:20.722Z,2.70
2019-01-25T18:23:47.745Z,2.70
2019-01-25T18:26:14.600Z,2.70
2019-01-25T18:28:42.532Z,2.60
2019-01-25T18:31:13.123Z,2.60
2019-01-25T18:33:40.063Z,2.70
2019-01-25T18:36:07.196Z,2.60
2019-01-25T18:38:34.670Z,2.60
2019-01-25T18:41:01.727Z,2.70
2019-01-25T18:43:28.788Z,2.70
2019-01-25T18:45:55.804Z,2.70
2019-01-25T18:48:23.187Z,2.70
2019-01-25T18:50:50.532Z,2.70
2019-01-25T18:53:17.375Z,2.70
2019-01-25T18:55:44.327Z,2.70
2019-01-25T18:58:11.342Z,2.70
2019-01-25T19:00:38.294Z,2.80
2019-01-25T19:03:05.275Z,2.80
2019-01-25T19:05:32.383Z,2.80
2019-01-25T19:07:59.227Z,2.80
2019-01-25T19:10:28.001Z,2.80
2019-01-25T19:12:55.615Z,2.80
2019-01-25T19:15:26.058Z,2.80
2019-01-25T19:17:53.265Z,2.80
2019-01-25T19:20:21.501Z,2.80
2019-01-25T19:22:49.095Z,2.80
2019-01-25T19:25:16.491Z,2.80
2019-01-25T19:27:43.715Z,2.80
2019-01-25T19:30:26.978Z,2.90
2019-01-25T19:32:53.875Z,2.90
2019-01-25T19:35:20.692Z,2.90
2019-01-25T19:37:48.081Z,2.90
2019-01-25T19:40:21.727Z,2.90
2019-01-25T19:42:48.855Z,2.90
2019-01-25T19:45:16.072Z,2.90
2019-01-25T19:47:43.336Z,2.90
2019-01-25T19:50:13.279Z,2.90
2019-01-25T19:52:40.229Z,2.90
2019-01-25T19:55:10.740Z,2.90
2019-01-25T19:57:37.703Z,3.00
2019-01-25T20:00:16.922Z,2.90
2019-01-25T20:02:44.259Z,3.00
2019-01-25T20:05:15.428Z,3.00
2019-01-25T20:07:42.368Z,3.00
2019-01-25T20:10:10.750Z,3.00
2019-01-25T20:12:38.136Z,3.00
2019-01-25T20:15:08.971Z,3.00
2019-01-25T20:17:36.968Z,3.10
2019-01-25T20:20:07.852Z,3.10
2019-01-25T20:22:34.768Z,3.10
2019-01-25T20:25:01.699Z,3.10
2019-01-25T20:27:29.814Z,3.10
2019-01-25T20:29:56.568Z,3.10
2019-01-25T20:32:23.584Z,3.10
2019-01-25T20:34:50.508Z,3.10
2019-01-25T20:37:17.512Z,3.10
2019-01-25T20:39:44.857Z,3.10
2019-01-25T20:42:11.766Z,3.10
2019-01-25T20:44:39.340Z,3.10
2019-01-25T20:47:06.288Z,3.20
2019-01-25T20:49:33.432Z,3.20
2019-01-25T20:52:00.364Z,3.20
2019-01-25T20:54:27.539Z,3.20
2019-01-25T20:56:54.448Z,3.20
2019-01-25T20:59:21.518Z,3.20
2019-01-25T21:01:48.307Z,3.20
2019-01-25T21:04:15.107Z,3.20
2019-01-25T21:06:41.866Z,3.20
2019-01-25T21:09:10.182Z,3.20
2019-01-25T21:11:37.067Z,3.20
2019-01-25T21:14:04.096Z,3.20
2019-01-25T21:16:31.050Z,3.30
2019-01-25T21:18:58.208Z,3.30
2019-01-25T21:21:25.431Z,3.30
2019-01-25T21:23:52.234Z,3.30
2019-01-25T21:26:19.147Z,3.30
2019-01-25T21:28:46.147Z,3.30
2019-01-25T21:31:13.240Z,3.40
2019-01-25T21:33:40.042Z,3.40
2019-01-25T21:36:07.056Z,3.40
2019-01-25T21:38:33.962Z,3.40
2019-01-25T21:41:00.819Z,3.50
2019-01-25T21:43:28.048Z,3.50
2019-01-25T21:45:54.999Z,3.50
2019-01-25T21:48:22.394Z,3.50
2019-01-25T21:50:49.312Z,3.50
2019-01-25T21:53:16.439Z,3.60
2019-01-25T21:55:43.466Z,3.60
2019-01-25T21:58:10.358Z,3.60
2019-01-25T22:00:37.049Z,3.60
2019-01-25T22:03:03.759Z,3.70
2019-01-25T22:05:30.610Z,3.70
2019-01-25T22:07:57.455Z,3.70
2019-01-25T22:10:29.527Z,3.70
2019-01-25T22:12:56.334Z,3.80
2019-01-25T22:15:23.076Z,3.80
2019-01-25T22:17:49.822Z,3.80
2019-01-25T22:20:18.918Z,3.80
2019-01-25T22:22:45.655Z,3.80
2019-01-25T22:25:12.372Z,3.90
2019-01-25T22:27:38.947Z,3.90
2019-01-25T22:30:09.191Z,3.90
2019-01-25T22:32:35.620Z,3.90
2019-01-25T22:35:02.071Z,4.00
2019-01-25T22:37:28.379Z,4.00
2019-01-25T22:39:55.104Z,4.00
2019-01-25T22:42:21.420Z,4.00
2019-01-25T22:44:47.961Z,4.00
2019-01-25T22:47:20.307Z,4.00
2019-01-25T22:49:42.480Z,4.00
2019-01-25T22:52:08.829Z,4.00
2019-01-25T22:54:35.117Z,4.10
2019-01-25T22:57:01.267Z,4.10
2019-01-25T22:59:27.413Z,4.10
2019-01-25T23:01:53.567Z,4.10
2019-01-25T23:04:26.284Z,4.10
2019-01-25T23:06:52.716Z,4.20
2019-01-25T23:09:22.660Z,4.20
2019-01-25T23:11:48.820Z,4.20
2019-01-25T23:14:14.987Z,4.30
2019-01-25T23:16:41.151Z,4.30
2019-01-25T23:19:07.295Z,4.30
2019-01-25T23:21:33.471Z,4.30
2019-01-25T23:23:59.918Z,4.30
2019-01-25T23:26:26.062Z,4.30
2019-01-25T23:28:52.247Z,4.40
2019-01-25T23:31:18.390Z,4.40
2019-01-25T23:33:44.547Z,4.40
2019-01-25T23:36:10.726Z,4.40
2019-01-25T23:38:37.183Z,4.40
2019-01-25T23:41:03.344Z,4.40
2019-01-25T23:43:29.533Z,4.40
2019-01-25T23:45:55.658Z,4.40
2019-01-25T23:48:21.815Z,4.40
2019-01-25T23:50:47.986Z,4.50
2019-01-25T23:53:14.169Z,4.50
2019-01-25T23:55:40.327Z,4.50
2019-01-25T23:58:06.502Z,4.50
